Stacy, Minnesota
Current Conditions -  °F | °C
As of 9:55 PM on Friday 24 Oct 2014 (Local Time) from KOEO Reporting Station
Haze Haze  
Wind Chill: 51°   Ceiling: 500
Heat Index: 51°   Visibility: 0.75mi
Dew Point: 51°   Wind: 0mph
Humidity: 100%   Direction: NA
Pressure: 29.87"   Gusts: NA
Location:  45.4°N, 92.99°W
Report Text: KOEO 250255Z AUTO 00000KT 3/4SM BR VV005 10/10 A2987 RMK AO2 T01040104
Loading
Personal Weather Stations






























Interactive Weather Map
Tropical Storm Tracking
New forecast layout! Learn more

10-Day Weather Forecast

Advertisements
Track Severe Weather on mobile